Windcrest, Texas
Current Conditions -  °F | °C
As of 10:58 AM on Sunday 23 Nov 2014 (Local Time) from KRND Reporting Station
Clear Clear  
Wind Chill: 71°   Ceiling: Unl
Heat Index: 71°   Visibility: 10mi
Dew Point: 48°   Wind: 12mph
Humidity: 44%   Direction: 260°W
Pressure: 29.68"   Gusts: NA
Location:  29.5172°N, 98.362°W
Report Text: KRND 231658Z AUTO 26010KT 10SM CLR 22/09 A2968 RMK AO2 SLP046 T02180090
Loading
Personal Weather Stations






























Interactive Weather Map New forecast layout! Learn more

10-Day Weather Forecast

Advertisements
Track Severe Weather on mobile